createdAt,value
2018-08-16T03:54:30.446Z,88.86
2018-08-16T03:55:30.057Z,87.65
2018-08-16T03:56:30.084Z,87.95
2018-08-16T03:57:30.060Z,88.76
2018-08-16T03:58:30.024Z,87.85
2018-08-16T03:59:30.034Z,89.26
2018-08-16T04:00:30.045Z,88.46
2018-08-16T04:04:53.762Z,88.76
2018-08-16T04:05:53.889Z,88.76
2018-08-16T04:08:16.407Z,88.29
2018-08-16T04:09:15.762Z,87.99
2018-08-16T04:10:16.841Z,89.01
2018-08-16T04:23:08.089Z,89.51
2018-08-16T04:24:07.759Z,89.81
2018-08-16T04:25:07.709Z,89.41
2018-08-16T04:26:07.746Z,88.80
2018-08-16T04:27:07.622Z,88.70
2018-08-16T04:28:07.599Z,88.29
2018-08-16T04:29:07.638Z,88.49
2018-08-16T04:30:08.489Z,88.90
2018-08-16T04:31:07.582Z,88.90
2018-08-16T04:32:07.515Z,90.12
2018-08-16T04:33:07.543Z,89.41
2018-08-16T04:34:07.528Z,88.80
2018-08-16T04:35:07.534Z,88.70
2018-08-16T04:36:07.536Z,89.11
2018-08-16T04:37:07.460Z,89.01
2018-08-16T04:38:07.463Z,88.03
2018-08-16T04:39:07.438Z,89.72
2018-08-16T04:40:07.426Z,88.60
2018-08-16T04:41:07.460Z,89.21
2018-08-16T04:42:07.450Z,89.25
2018-08-16T04:43:07.400Z,88.54
2018-08-16T04:44:07.597Z,88.84
2018-08-16T04:45:07.381Z,88.60
2018-08-16T04:46:07.379Z,87.83
2018-08-16T04:47:07.389Z,89.15
2018-08-16T04:48:07.359Z,89.45
2018-08-16T04:49:07.335Z,89.45
2018-08-16T04:50:07.308Z,89.65
2018-08-16T04:51:07.314Z,89.41
2018-08-16T04:52:07.293Z,89.01
2018-08-16T04:53:07.309Z,88.75
2018-08-16T04:54:07.277Z,86.31
2018-08-16T04:55:07.291Z,86.41
2018-08-16T04:56:07.249Z,88.54
2018-08-16T04:57:07.236Z,90.36
2018-08-16T04:58:07.238Z,90.12
2018-08-16T04:59:07.250Z,89.92
2018-08-16T05:00:07.255Z,89.92
2018-08-16T05:01:07.275Z,90.53
2018-08-16T05:02:07.251Z,90.02
2018-08-16T05:03:07.258Z,89.65
2018-08-16T05:04:07.195Z,89.61
2018-08-16T05:05:07.275Z,89.92
2018-08-16T05:06:07.267Z,90.32
2018-08-16T05:07:07.120Z,90.02
2018-08-16T05:08:07.118Z,89.01
2018-08-16T05:09:07.154Z,88.80
2018-08-16T05:10:07.126Z,90.12
2018-08-16T05:11:07.152Z,90.02
2018-08-16T05:12:07.086Z,90.32
2018-08-16T05:13:07.068Z,89.72
2018-08-16T05:14:07.065Z,89.72
2018-08-16T05:15:07.099Z,88.90
2018-08-16T05:16:07.044Z,88.70
2018-08-16T05:17:07.235Z,88.29
2018-08-16T05:18:06.987Z,90.02
2018-08-16T05:19:06.990Z,88.20
2018-08-16T05:20:07.000Z,88.20
2018-08-16T05:21:07.032Z,89.11
2018-08-16T05:22:06.951Z,89.31
2018-08-16T05:23:06.944Z,90.08
2018-08-16T05:24:06.931Z,90.32
2018-08-16T05:25:06.978Z,90.18
2018-08-16T05:26:06.982Z,89.47
2018-08-16T05:27:06.900Z,89.67
2018-08-16T05:28:06.963Z,89.37
2018-08-16T05:29:06.893Z,89.17
2018-08-16T05:30:06.862Z,89.57
2018-08-16T05:31:06.907Z,89.47
2018-08-16T05:32:06.908Z,90.28
2018-08-16T05:33:06.842Z,89.98
2018-08-16T05:34:06.820Z,89.26
2018-08-16T05:35:06.827Z,88.96
2018-08-16T05:36:06.832Z,88.25
2018-08-16T05:37:06.814Z,88.05
2018-08-16T05:38:06.793Z,89.83
2018-08-16T05:39:06.768Z,89.83
2018-08-16T05:40:06.784Z,88.25
2018-08-16T05:41:06.759Z,88.31
2018-08-16T05:42:06.740Z,89.12
2018-08-16T05:43:06.850Z,88.31
2018-08-16T05:44:06.705Z,88.92
2018-08-16T05:45:06.693Z,88.92
2018-08-16T05:46:06.812Z,88.82
2018-08-16T05:47:06.704Z,88.01
2018-08-16T05:48:07.528Z,88.37
2018-08-16T05:49:06.660Z,88.07
2018-08-16T05:50:06.635Z,87.87
2018-08-16T05:51:06.620Z,87.87
2018-08-16T05:52:06.679Z,87.77
2018-08-16T05:53:06.636Z,88.07
2018-08-16T05:54:06.623Z,87.97
2018-08-16T05:55:06.618Z,86.96
2018-08-16T05:56:06.580Z,87.77
2018-08-16T05:57:06.566Z,87.26
2018-08-16T05:58:06.585Z,88.02
2018-08-16T05:59:06.545Z,86.31
2018-08-16T06:00:07.478Z,86.61
2018-08-16T06:01:06.512Z,86.82
2018-08-16T06:02:06.503Z,87.12
2018-08-16T06:04:23.872Z,86.77
2018-08-16T06:06:44.264Z,86.43
2018-08-16T06:07:43.817Z,85.31
2018-08-16T06:08:52.296Z,85.31
2018-08-16T06:18:33.487Z,84.23
2018-08-16T06:19:33.063Z,84.33
2018-08-16T06:20:32.927Z,84.33
2018-08-16T06:21:33.045Z,83.72
2018-08-16T06:22:32.872Z,83.92
2018-08-16T06:23:32.867Z,83.22
2018-08-16T06:24:32.883Z,83.01
2018-08-16T06:25:32.893Z,83.32
2018-08-16T06:26:32.820Z,84.23
2018-08-16T06:27:32.886Z,83.78
2018-08-16T06:28:32.852Z,83.88
2018-08-16T06:29:32.843Z,84.19
2018-08-16T06:30:32.772Z,83.95
2018-08-16T06:31:32.824Z,82.64
2018-08-16T06:32:32.760Z,82.53
2018-08-16T06:33:32.761Z,82.93
2018-08-16T06:34:32.791Z,82.29
2018-08-16T06:35:32.790Z,82.59
2018-08-16T06:36:32.805Z,84.11
2018-08-16T06:37:32.733Z,82.70
2018-08-16T06:38:32.692Z,82.50
2018-08-16T06:39:32.679Z,82.19
2018-08-16T06:40:32.693Z,81.68
2018-08-16T06:41:32.660Z,81.75
2018-08-16T06:42:32.733Z,81.45
2018-08-16T06:43:32.656Z,81.35
2018-08-16T06:44:32.690Z,80.70
2018-08-16T06:45:32.618Z,79.90
2018-08-16T06:46:32.602Z,80.60
2018-08-16T06:47:32.649Z,80.40
2018-08-16T06:48:32.582Z,81.01
2018-08-16T06:49:32.577Z,81.10
2018-08-16T06:50:32.554Z,81.01
2018-08-16T06:51:32.566Z,80.20
2018-08-16T06:52:32.563Z,79.96
2018-08-16T06:53:32.523Z,79.86
2018-08-16T06:54:32.515Z,79.66
2018-08-16T07:01:14.910Z,78.78
2018-08-16T07:06:46.780Z,78.84
2018-08-16T07:07:46.235Z,77.73
2018-08-16T07:08:46.732Z,76.73
2018-08-16T07:09:46.361Z,76.83
2018-08-16T07:10:47.766Z,76.53
2018-08-16T07:11:49.037Z,76.83
2018-08-16T07:12:47.969Z,76.29
2018-08-16T07:13:46.058Z,75.68
2018-08-16T07:14:46.082Z,75.18
2018-08-16T07:15:46.012Z,75.09
2018-08-16T07:16:46.006Z,75.05
2018-08-16T07:17:45.977Z,74.65
2018-08-16T07:18:45.972Z,75.15
2018-08-16T07:19:45.923Z,75.45
2018-08-16T07:20:45.924Z,75.25
2018-08-16T07:21:45.915Z,74.35
2018-08-16T07:22:46.029Z,74.41
2018-08-16T07:23:45.986Z,73.81
2018-08-16T07:24:46.059Z,74.71
2018-08-16T07:25:45.985Z,74.61
2018-08-16T07:26:46.749Z,74.51
2018-08-16T07:27:45.951Z,73.97
2018-08-16T07:28:46.025Z,73.67
2018-08-16T07:29:45.803Z,73.07
2018-08-16T07:30:45.824Z,73.24
2018-08-16T07:31:45.804Z,73.17
2018-08-16T07:32:45.773Z,73.77
2018-08-16T07:33:45.826Z,72.63
2018-08-16T07:34:45.754Z,72.74
2018-08-16T07:35:45.771Z,72.63
2018-08-16T07:36:45.752Z,72.50
2018-08-16T07:37:45.856Z,72.53
2018-08-16T07:38:45.704Z,73.13
2018-08-16T07:39:45.693Z,72.40
2018-08-16T07:40:45.681Z,72.90
2018-08-16T07:41:45.717Z,72.80
2018-08-16T07:42:45.664Z,72.40
2018-08-16T07:43:45.687Z,72.50
2018-08-16T07:44:45.700Z,71.56
2018-08-16T07:45:45.813Z,70.86
2018-08-16T07:46:45.637Z,70.86
2018-08-16T07:47:45.620Z,70.62
2018-08-16T07:48:45.652Z,70.43
2018-08-16T07:49:45.581Z,70.83
2018-08-16T07:50:45.569Z,70.73
2018-08-16T07:51:45.837Z,70.69
2018-08-16T07:52:45.583Z,69.79
2018-08-16T07:53:45.535Z,69.99
2018-08-16T07:54:45.518Z,70.09
2018-08-16T07:55:45.518Z,69.59
2018-08-16T07:56:45.521Z,69.09
2018-08-16T07:57:45.606Z,69.96
2018-08-16T07:58:45.499Z,69.16
2018-08-16T07:59:45.469Z,69.26
2018-08-16T08:00:45.519Z,67.96
2018-08-16T08:01:45.469Z,68.55
2018-08-16T08:02:45.430Z,68.96
2018-08-16T08:03:45.462Z,69.53
2018-08-16T08:04:45.528Z,67.52
2018-08-16T08:05:45.450Z,68.82
2018-08-16T08:06:45.390Z,68.23
2018-08-16T08:07:45.399Z,67.32
2018-08-16T08:08:45.441Z,66.39
2018-08-16T08:09:45.425Z,66.09
2018-08-16T08:10:45.350Z,66.29
2018-08-16T08:11:45.384Z,66.39
2018-08-16T08:12:45.368Z,66.19
2018-08-16T08:15:44.965Z,66.33
2018-08-16T08:16:44.948Z,67.63
2018-08-16T08:17:44.822Z,65.43
2018-08-16T08:18:45.011Z,65.10
2018-08-16T08:19:44.888Z,64.20
2018-08-16T08:20:44.839Z,65.00
2018-08-16T08:21:44.792Z,64.10
2018-08-16T08:22:44.828Z,63.07
2018-08-16T08:23:44.764Z,64.27
2018-08-16T08:24:44.763Z,62.97
2018-08-16T08:25:45.289Z,64.14
2018-08-16T08:26:44.733Z,63.44
2018-08-16T08:27:44.728Z,62.94
2018-08-16T08:28:44.806Z,62.12
2018-08-16T08:29:46.337Z,62.12
2018-08-16T08:30:44.843Z,62.01
2018-08-16T08:31:44.786Z,62.29
2018-08-16T08:32:44.682Z,62.48
2018-08-16T08:33:59.998Z,60.16
2018-08-16T08:34:44.733Z,60.46
2018-08-16T08:35:44.868Z,61.16
2018-08-16T08:36:44.627Z,62.05
2018-08-16T08:37:44.702Z,59.34
2018-08-16T08:38:44.611Z,59.23
2018-08-16T08:39:44.588Z,59.74
2018-08-16T08:40:44.609Z,59.64
2018-08-16T08:41:44.587Z,58.22
2018-08-16T08:42:44.558Z,58.51
2018-08-16T08:43:44.561Z,59.48
2018-08-16T08:44:44.548Z,58.11
2018-08-16T08:45:44.533Z,58.28
2018-08-16T08:46:44.545Z,58.01
2018-08-16T08:47:44.526Z,59.01
2018-08-16T08:48:44.509Z,58.71
2018-08-16T08:49:44.497Z,58.34
2018-08-16T08:50:44.504Z,60.40
2018-08-16T08:51:44.566Z,61.87
2018-08-16T08:52:44.482Z,57.39
2018-08-16T08:53:44.446Z,57.17
2018-08-16T08:54:44.441Z,56.44
2018-08-16T08:55:44.471Z,56.47
2018-08-16T08:56:44.420Z,58.13
2018-08-16T08:57:44.441Z,57.24
2018-08-16T08:58:44.403Z,56.77
2018-08-16T08:59:44.410Z,57.26
2018-08-16T09:00:44.439Z,57.34
2018-08-16T09:01:44.410Z,58.33
2018-08-16T09:02:44.389Z,56.41
2018-08-16T09:03:44.355Z,57.48
2018-08-16T09:04:44.359Z,55.89
2018-08-16T09:05:44.334Z,56.46
2018-08-16T09:06:44.392Z,56.16
2018-08-16T09:07:44.339Z,56.66
2018-08-16T09:08:44.365Z,55.34
2018-08-16T09:09:44.317Z,54.64
2018-08-16T09:10:44.293Z,54.35
2018-08-16T09:12:55.638Z,54.47
2018-08-16T09:13:55.312Z,54.64
2018-08-16T09:14:55.097Z,54.94
2018-08-16T09:15:55.038Z,54.05
2018-08-16T09:16:55.007Z,54.05
2018-08-16T09:17:55.025Z,54.35
2018-08-16T09:18:55.000Z,54.25
2018-08-16T09:19:54.997Z,54.47
2018-08-16T09:20:54.964Z,56.46
2018-08-16T09:21:54.999Z,54.90
2018-08-16T09:22:54.967Z,56.38
2018-08-16T09:23:54.938Z,55.87
2018-08-16T09:24:54.946Z,55.64
2018-08-16T09:25:54.918Z,54.45
2018-08-16T09:26:54.903Z,53.56
2018-08-16T09:27:54.917Z,54.05
2018-08-16T09:28:54.900Z,53.66
2018-08-16T09:29:54.908Z,54.45
2018-08-16T09:30:54.872Z,54.02
2018-08-16T09:31:54.876Z,53.63
2018-08-16T09:32:54.898Z,53.03
2018-08-16T09:33:54.841Z,52.73
2018-08-16T09:36:37.535Z,53.33
2018-08-16T09:37:37.007Z,52.51
2018-08-16T09:38:36.369Z,52.84
2018-08-16T09:39:36.736Z,53.63
2018-08-16T09:40:36.346Z,53.13
2018-08-16T09:41:37.284Z,53.80
2018-08-16T09:43:53.431Z,52.88
2018-08-16T09:44:53.260Z,51.60
2018-08-16T09:45:57.163Z,52.09
2018-08-16T09:46:53.336Z,51.99
2018-08-16T09:47:53.153Z,51.50
2018-08-16T09:50:59.473Z,51.45
2018-08-16T09:51:59.242Z,52.69
2018-08-16T09:52:59.188Z,53.48
2018-08-16T09:53:59.370Z,53.88
2018-08-16T09:54:59.131Z,53.26
2018-08-16T09:55:58.998Z,53.13
2018-08-16T09:56:59.012Z,52.61
2018-08-16T09:57:58.953Z,52.29
2018-08-16T09:58:58.996Z,53.67
2018-08-16T09:59:58.936Z,52.76
2018-08-16T10:00:59.008Z,51.47
2018-08-16T10:01:58.965Z,53.13
2018-08-16T10:02:58.922Z,51.92
2018-08-16T10:03:58.921Z,49.82
2018-08-16T10:04:58.934Z,51.30
2018-08-16T10:05:58.882Z,50.01
2018-08-16T10:06:58.880Z,48.83
2018-08-16T10:07:58.899Z,48.80
2018-08-16T10:08:58.855Z,48.33
2018-08-16T10:09:58.875Z,48.53
2018-08-16T10:10:58.837Z,50.19
2018-08-16T10:11:58.867Z,48.71
2018-08-16T10:12:58.843Z,49.52
2018-08-16T10:13:58.812Z,50.78
2018-08-16T10:14:58.811Z,49.57
2018-08-16T10:15:59.133Z,47.79
2018-08-16T10:16:58.794Z,47.08
2018-08-16T10:17:58.786Z,48.80
2018-08-16T10:18:58.813Z,47.25
2018-08-16T10:19:58.762Z,48.83
2018-08-16T10:20:58.970Z,48.63
2018-08-16T10:21:58.815Z,48.83
2018-08-16T10:22:58.764Z,47.94
2018-08-16T10:23:58.748Z,51.15
2018-08-16T10:24:58.863Z,51.52
2018-08-16T10:25:58.733Z,49.13
2018-08-16T10:26:58.829Z,48.68
2018-08-16T10:27:58.773Z,48.31
2018-08-16T10:28:58.714Z,47.32
2018-08-16T10:29:58.719Z,47.69
2018-08-16T10:30:58.684Z,47.10
2018-08-16T10:31:58.656Z,46.83
2018-08-16T10:32:58.666Z,48.49
2018-08-16T10:33:58.650Z,46.91
2018-08-16T10:34:58.669Z,47.69
2018-08-16T10:35:58.677Z,48.78
2018-08-16T10:36:58.668Z,47.89
2018-08-16T10:37:58.643Z,46.91
2018-08-16T10:38:58.608Z,47.99
2018-08-16T10:39:58.614Z,47.40
2018-08-16T10:40:58.578Z,47.03
2018-08-16T10:41:58.607Z,47.74
2018-08-16T10:42:58.596Z,48.63
2018-08-16T10:43:58.573Z,49.99
2018-08-16T10:44:58.571Z,48.61
2018-08-16T10:45:58.534Z,47.77
2018-08-16T10:46:59.263Z,46.88
2018-08-16T10:47:58.543Z,46.96
2018-08-16T10:48:58.576Z,47.38
2018-08-16T10:49:58.583Z,47.67
2018-08-16T10:50:58.522Z,46.88
2018-08-16T10:51:58.494Z,46.76
2018-08-16T10:52:58.487Z,48.54
2018-08-16T10:53:58.519Z,47.23
2018-08-16T10:54:58.803Z,49.08
2018-08-16T10:55:59.644Z,47.16
2018-08-16T10:56:58.907Z,45.29
2018-08-16T10:57:58.434Z,44.90
2018-08-16T10:58:58.463Z,44.51
2018-08-16T10:59:58.429Z,45.12
2018-08-16T11:00:58.425Z,44.65
2018-08-16T11:01:58.495Z,46.42
2018-08-16T11:02:58.413Z,46.50
2018-08-16T11:03:58.413Z,45.12
2018-08-16T11:04:58.476Z,44.43
2018-08-16T11:05:58.376Z,44.35
2018-08-16T11:06:58.388Z,45.14
2018-08-16T11:07:58.355Z,46.03
2018-08-16T11:08:58.427Z,46.62
2018-08-16T11:09:58.382Z,44.53
2018-08-16T11:10:58.322Z,45.02
2018-08-16T11:11:58.371Z,44.90
2018-08-16T11:12:58.348Z,45.29
2018-08-16T11:13:58.422Z,45.00
2018-08-16T11:14:58.298Z,45.56
2018-08-16T11:15:58.357Z,43.99
2018-08-16T11:16:58.283Z,43.71
2018-08-16T11:17:58.301Z,44.48
2018-08-16T11:18:58.343Z,44.88
2018-08-16T11:19:58.287Z,43.01
2018-08-16T11:20:58.265Z,45.39
2018-08-16T11:21:58.232Z,44.31
2018-08-16T11:22:58.262Z,43.99
2018-08-16T11:23:58.212Z,43.79
2018-08-16T11:24:58.202Z,43.20
2018-08-16T11:25:58.200Z,43.18
2018-08-16T11:26:58.224Z,45.15
2018-08-16T11:27:58.174Z,44.83
2018-08-16T11:28:58.185Z,43.26
2018-08-16T11:29:58.218Z,42.69
2018-08-16T11:30:58.737Z,42.99
2018-08-16T11:31:58.216Z,44.36
2018-08-16T11:32:58.139Z,42.49
2018-08-16T11:33:58.178Z,42.91
2018-08-16T11:34:58.162Z,45.05
2018-08-16T11:35:58.143Z,43.97
2018-08-16T11:36:58.121Z,43.18
2018-08-16T11:37:58.186Z,43.85
2018-08-16T11:38:58.150Z,43.36
2018-08-16T11:40:00.614Z,42.67
2018-08-16T11:40:58.097Z,43.46
2018-08-16T11:41:58.058Z,42.67
2018-08-16T11:42:58.062Z,42.20
2018-08-16T11:43:58.102Z,42.40
2018-08-16T11:44:58.083Z,42.40
2018-08-16T11:45:58.019Z,42.49
2018-08-16T11:46:58.098Z,42.69
2018-08-16T11:47:58.008Z,42.71
2018-08-16T11:48:58.003Z,42.32
2018-08-16T11:49:58.082Z,42.93
2018-08-16T11:50:57.983Z,45.96
2018-08-16T11:51:58.848Z,45.17
2018-08-16T11:52:57.984Z,43.97
2018-08-16T11:53:57.998Z,42.55
2018-08-16T11:54:57.957Z,42.63
2018-08-16T11:55:57.963Z,42.53
2018-08-16T11:56:57.933Z,43.10
2018-08-16T11:57:57.922Z,42.10
2018-08-16T11:58:57.917Z,40.48
2018-08-16T11:59:57.911Z,40.56
2018-08-16T12:00:57.922Z,40.76
2018-08-16T12:01:57.948Z,41.25
2018-08-16T12:02:57.879Z,39.39
2018-08-16T12:03:58.017Z,40.98
2018-08-16T12:04:57.870Z,41.35
2018-08-16T12:05:57.849Z,39.72
2018-08-16T12:07:00.592Z,41.27
2018-08-16T12:07:57.845Z,40.31
2018-08-16T12:08:57.869Z,40.31
2018-08-16T12:09:57.851Z,39.25
2018-08-16T12:10:57.839Z,39.60
2018-08-16T12:11:57.796Z,41.47
2018-08-16T12:12:57.797Z,39.00
2018-08-16T12:13:57.774Z,39.39
2018-08-16T12:14:57.801Z,38.31
2018-08-16T12:15:57.774Z,39.98
2018-08-16T12:16:57.748Z,39.48
2018-08-16T12:17:57.775Z,41.25
2018-08-16T12:18:57.749Z,38.98
2018-08-16T12:19:57.731Z,39.86
2018-08-16T12:20:57.771Z,39.74
2018-08-16T12:21:57.729Z,39.94
2018-08-16T12:22:57.693Z,39.06
2018-08-16T12:23:57.688Z,38.54
2018-08-16T12:24:57.689Z,37.58
2018-08-16T12:25:57.688Z,39.07
2018-08-16T12:26:57.686Z,40.13
2018-08-16T12:27:57.661Z,38.19
2018-08-16T12:28:57.729Z,37.99
2018-08-16T12:29:57.633Z,38.19
2018-08-16T12:30:57.625Z,37.82
2018-08-16T12:31:57.650Z,39.09
2018-08-16T12:32:57.693Z,39.39
2018-08-16T12:33:57.608Z,40.16
2018-08-16T12:34:57.710Z,38.48
2018-08-16T12:35:57.585Z,40.45
2018-08-16T12:36:57.573Z,39.86
2018-08-16T12:37:57.577Z,40.16
2018-08-16T12:38:57.558Z,39.47
2018-08-16T12:39:57.569Z,39.92
2018-08-16T12:40:57.570Z,38.15
2018-08-16T12:41:57.553Z,37.94
2018-08-16T12:42:57.519Z,37.94
2018-08-16T12:43:57.529Z,38.04
2018-08-16T12:44:57.505Z,39.22
2018-08-16T12:45:57.488Z,38.13
2018-08-16T12:46:57.498Z,38.62
2018-08-16T12:47:57.468Z,38.82
2018-08-16T12:48:57.684Z,37.92
2018-08-16T12:49:57.467Z,37.65
2018-08-16T12:50:57.465Z,38.60
2018-08-16T12:51:57.433Z,39.19
2018-08-16T12:52:57.516Z,37.02
2018-08-16T12:53:57.541Z,36.45
2018-08-16T12:54:57.471Z,36.88
2018-08-16T12:55:57.400Z,38.74
2018-08-16T12:56:57.424Z,36.99
2018-08-16T12:57:57.406Z,36.52
2018-08-16T12:58:57.384Z,37.99
2018-08-16T12:59:57.354Z,38.48
2018-08-16T13:00:57.348Z,37.78
2018-08-16T13:01:57.521Z,37.68
2018-08-16T13:02:57.370Z,39.35
2018-08-16T13:03:57.353Z,38.56
2018-08-16T13:04:57.311Z,39.25
2018-08-16T13:05:57.300Z,39.45
2018-08-16T13:06:57.294Z,39.35
2018-08-16T13:07:57.336Z,39.15
2018-08-16T13:08:57.374Z,39.64
2018-08-16T13:09:57.266Z,38.45
2018-08-16T13:10:57.279Z,38.54
2018-08-16T13:11:57.351Z,38.23
2018-08-16T13:12:57.236Z,37.96
2018-08-16T13:13:57.229Z,37.66
2018-08-16T13:14:57.264Z,36.68
2018-08-16T13:15:57.209Z,36.90
2018-08-16T13:16:57.199Z,37.09
2018-08-16T13:17:57.200Z,37.66
2018-08-16T13:18:57.201Z,37.98
2018-08-16T13:19:57.229Z,37.98
2018-08-16T13:20:57.171Z,38.39
2018-08-16T13:21:57.149Z,38.78
2018-08-16T13:22:57.141Z,37.11
2018-08-16T13:23:57.146Z,37.01
2018-08-16T13:24:57.148Z,37.62
2018-08-16T13:25:57.113Z,38.29
2018-08-16T13:26:57.115Z,38.96
2018-08-16T13:27:57.093Z,36.49
2018-08-16T13:28:57.092Z,36.58
2018-08-16T13:29:57.162Z,37.76
2018-08-16T13:30:57.115Z,38.15
2018-08-16T13:31:57.061Z,37.05
2018-08-16T13:32:57.059Z,37.45
2018-08-16T13:33:57.040Z,37.66
2018-08-16T13:34:57.040Z,36.88
2018-08-16T13:35:57.053Z,37.76
2018-08-16T13:36:57.051Z,37.27
2018-08-16T13:40:37.707Z,37.11
2018-08-16T13:41:37.274Z,36.52
2018-08-16T13:42:37.171Z,37.21
2018-08-16T13:43:37.171Z,36.93
2018-08-16T13:44:37.145Z,37.13
2018-08-16T13:45:37.150Z,36.85
2018-08-16T13:46:37.222Z,38.68
2018-08-16T13:47:37.119Z,37.30
2018-08-16T13:48:37.130Z,37.29
2018-08-16T13:49:37.167Z,37.98
2018-08-16T13:50:37.144Z,38.64
2018-08-16T13:51:37.091Z,36.66
2018-08-16T13:52:37.226Z,36.68
2018-08-16T13:53:37.067Z,36.78
2018-08-16T13:54:37.051Z,37.07
2018-08-16T13:55:37.068Z,39.31
2018-08-16T13:56:37.121Z,36.49
2018-08-16T13:57:37.068Z,36.57
2018-08-16T13:58:37.027Z,36.76
2018-08-16T13:59:37.005Z,37.94
2018-08-16T14:00:37.056Z,36.47
2018-08-16T14:01:37.005Z,35.60
2018-08-16T14:02:36.982Z,36.70
2018-08-16T14:03:37.084Z,35.72
2018-08-16T14:04:36.984Z,36.93
2018-08-16T14:05:36.939Z,37.01
2018-08-16T14:06:36.930Z,37.13
2018-08-16T14:07:36.957Z,38.19
2018-08-16T14:08:37.333Z,36.24
2018-08-16T14:09:36.901Z,38.80
2018-08-16T14:10:36.888Z,38.48
2018-08-16T14:11:36.877Z,37.50
2018-08-16T14:12:36.911Z,37.78
2018-08-16T14:13:36.977Z,36.40
2018-08-16T14:14:36.878Z,36.52
2018-08-16T14:15:36.850Z,38.48
2018-08-16T14:16:36.879Z,37.09
2018-08-16T14:17:36.862Z,36.70
2018-08-16T14:18:36.907Z,36.90
2018-08-16T14:19:36.844Z,36.90
2018-08-16T14:20:36.784Z,36.70
2018-08-16T14:21:36.860Z,36.80
2018-08-16T14:22:36.829Z,37.50
2018-08-16T14:23:36.759Z,37.70
2018-08-16T14:24:36.752Z,37.11
2018-08-16T14:25:36.976Z,36.70
2018-08-16T14:26:36.774Z,36.51
2018-08-16T14:27:36.831Z,36.78
2018-08-16T14:28:36.804Z,36.70
2018-08-16T14:29:36.712Z,36.39
2018-08-16T14:30:36.697Z,36.70
2018-08-16T14:31:36.678Z,36.80
2018-08-16T14:32:36.663Z,36.40
2018-08-16T14:33:36.809Z,38.07
2018-08-16T14:34:36.715Z,36.99
2018-08-16T14:35:36.690Z,37.29
2018-08-16T14:36:36.627Z,37.38
2018-08-16T14:37:36.666Z,36.82
2018-08-16T14:38:36.831Z,36.82
2018-08-16T14:39:36.627Z,37.23
2018-08-16T14:40:37.329Z,37.11
2018-08-16T14:41:36.574Z,36.54
2018-08-16T14:42:36.565Z,37.72
2018-08-16T14:43:36.559Z,37.23
2018-08-16T14:44:36.564Z,36.74
2018-08-16T14:45:36.579Z,37.82
2018-08-16T14:46:36.660Z,37.52
2018-08-16T14:47:36.512Z,36.63
2018-08-16T14:48:36.505Z,37.54
2018-08-16T14:49:36.502Z,37.55
2018-08-16T14:50:36.545Z,37.97
2018-08-16T14:51:36.487Z,39.52
2018-08-16T14:52:36.486Z,38.44
2018-08-16T14:53:36.547Z,39.03
2018-08-16T14:54:36.450Z,38.84
2018-08-16T14:55:36.547Z,38.42
2018-08-16T14:56:36.446Z,37.74
2018-08-16T14:57:36.453Z,37.93
2018-08-16T14:58:36.408Z,38.23
2018-08-16T14:59:36.486Z,38.13
2018-08-16T15:00:36.401Z,38.34
2018-08-16T15:01:36.367Z,38.15
2018-08-16T15:02:36.375Z,38.44
2018-08-16T15:03:36.448Z,38.34
2018-08-16T15:04:36.344Z,38.34
2018-08-16T15:05:36.328Z,39.82
2018-08-16T15:06:36.344Z,37.85
2018-08-16T15:07:36.426Z,38.24
2018-08-16T15:08:36.328Z,38.74
2018-08-16T15:09:59.388Z,38.74
2018-08-16T15:10:36.422Z,38.84
2018-08-16T15:11:36.280Z,38.26
2018-08-16T15:12:37.197Z,39.94
2018-08-16T15:13:36.246Z,37.97
2018-08-16T15:14:36.286Z,39.17
2018-08-16T15:15:36.297Z,38.58
2018-08-16T15:16:36.234Z,39.39
2018-08-16T15:17:36.287Z,39.28
2018-08-16T15:18:36.232Z,39.58
2018-08-16T15:19:37.258Z,39.28
2018-08-16T15:20:38.235Z,39.56
2018-08-16T15:21:36.204Z,39.95
2018-08-16T15:22:36.152Z,39.86
2018-08-16T15:23:36.272Z,39.17
2018-08-16T15:24:36.275Z,38.97
2018-08-16T15:25:36.466Z,39.37
2018-08-16T15:26:36.255Z,39.87
2018-08-16T15:27:36.124Z,39.87
2018-08-16T15:28:36.384Z,40.08
2018-08-16T15:29:36.080Z,40.08
2018-08-16T15:30:36.365Z,39.97
2018-08-16T15:31:36.165Z,39.68
2018-08-16T15:32:36.093Z,40.19
2018-08-16T15:33:36.762Z,41.47
2018-08-16T15:34:36.075Z,40.19
2018-08-16T15:35:36.242Z,40.00
2018-08-16T15:36:36.037Z,40.58
2018-08-16T15:37:36.078Z,41.09
2018-08-16T15:38:36.053Z,41.30
2018-08-16T15:39:36.094Z,41.39
2018-08-16T15:40:35.969Z,41.49
2018-08-16T15:41:35.955Z,40.11
2018-08-16T15:42:35.996Z,41.39
2018-08-16T15:43:35.978Z,41.49
2018-08-16T15:44:35.920Z,41.78
2018-08-16T15:45:35.907Z,40.98
2018-08-16T15:46:35.985Z,41.49
2018-08-16T15:47:36.185Z,41.96
2018-08-16T15:48:35.916Z,42.18
2018-08-16T15:49:35.929Z,41.09
2018-08-16T15:50:35.948Z,41.30
2018-08-16T15:51:35.890Z,42.08
2018-08-16T15:52:35.858Z,42.18
2018-08-16T15:53:35.822Z,41.09
2018-08-16T15:54:36.045Z,41.49
2018-08-16T15:55:35.871Z,42.77
2018-08-16T15:56:35.837Z,42.38
2018-08-16T15:57:35.793Z,41.78
2018-08-16T15:58:35.792Z,41.78
2018-08-16T15:59:35.780Z,41.69
2018-08-16T16:00:35.959Z,41.78
2018-08-16T16:01:35.770Z,41.31
2018-08-16T16:02:35.760Z,41.81
2018-08-16T16:03:35.740Z,41.51
2018-08-16T16:04:35.758Z,41.71
2018-08-16T16:05:35.831Z,42.00
2018-08-16T16:06:35.807Z,42.10
2018-08-16T16:07:35.686Z,42.69
2018-08-16T16:08:35.673Z,41.71
2018-08-16T16:09:35.709Z,41.81
2018-08-16T16:10:35.644Z,41.41
2018-08-16T16:11:35.637Z,41.53
2018-08-16T16:12:35.709Z,42.42
2018-08-16T16:13:35.634Z,41.83
2018-08-16T16:14:35.599Z,42.05
2018-08-16T16:15:35.584Z,42.14
2018-08-16T16:16:35.584Z,42.32
2018-08-16T16:17:36.140Z,42.64
2018-08-16T16:18:35.625Z,42.54
2018-08-16T16:19:35.615Z,42.32
2018-08-16T16:27:19.471Z,41.71
2018-08-16T16:28:19.083Z,41.71
2018-08-16T16:29:20.322Z,41.51
2018-08-16T16:30:18.871Z,41.41
2018-08-16T16:31:18.891Z,41.31
2018-08-16T16:32:18.845Z,42.22
2018-08-16T16:33:18.908Z,42.20
2018-08-16T16:34:18.946Z,41.33
2018-08-16T16:35:18.816Z,42.42
2018-08-16T16:36:19.779Z,41.53
2018-08-16T16:37:18.860Z,41.95
2018-08-16T16:38:18.799Z,41.55
2018-08-16T16:39:18.805Z,42.14
2018-08-16T16:40:18.854Z,41.85
2018-08-16T16:41:18.751Z,41.75
2018-08-16T16:42:18.740Z,42.16
2018-08-16T16:43:18.728Z,41.65
2018-08-16T16:44:18.728Z,42.26
2018-08-16T16:45:18.760Z,42.16
2018-08-16T16:46:18.728Z,42.16
2018-08-16T16:48:11.853Z,42.56
2018-08-16T16:49:11.390Z,42.36
2018-08-16T16:50:11.389Z,42.07
2018-08-16T16:51:11.338Z,42.96
2018-08-16T16:52:11.379Z,42.76
2018-08-16T16:53:11.297Z,41.99
2018-08-16T16:54:11.287Z,41.97
2018-08-16T16:55:11.279Z,42.19
2018-08-16T16:56:13.057Z,41.67
2018-08-16T16:57:11.272Z,42.07
2018-08-16T16:58:11.245Z,42.08
2018-08-16T16:59:11.294Z,41.47
2018-08-16T17:00:11.228Z,42.88
2018-08-16T17:01:11.249Z,42.29
2018-08-16T17:02:11.248Z,42.46
2018-08-16T17:03:11.192Z,42.08
2018-08-16T17:04:11.299Z,42.78
2018-08-16T17:05:11.169Z,42.78
2018-08-16T17:06:11.164Z,42.88
2018-08-16T17:07:11.267Z,42.58
2018-08-16T17:08:11.191Z,43.07
2018-08-16T17:09:11.153Z,42.78
2018-08-16T17:10:11.164Z,43.17
2018-08-16T17:11:11.147Z,42.48
2018-08-16T17:12:11.154Z,43.59
2018-08-16T17:13:11.149Z,42.90
2018-08-16T17:14:11.103Z,43.29
2018-08-16T17:15:11.057Z,42.80
2018-08-16T17:16:11.072Z,43.19
2018-08-16T17:18:33.653Z,43.39
2018-08-16T17:19:33.185Z,42.40
2018-08-16T17:20:33.160Z,43.39
2018-08-16T17:21:33.142Z,43.51
2018-08-16T17:22:33.120Z,43.91
2018-08-16T17:23:33.121Z,43.91
2018-08-16T17:24:33.102Z,43.61
2018-08-16T17:25:33.144Z,42.92
2018-08-16T17:26:33.204Z,43.41
2018-08-16T17:27:33.118Z,43.91
2018-08-16T17:28:33.102Z,43.12
2018-08-16T17:29:33.047Z,43.51
2018-08-16T17:30:33.034Z,44.70
2018-08-16T17:31:33.022Z,45.21
2018-08-16T17:32:33.010Z,44.13
2018-08-16T17:33:33.023Z,43.24
2018-08-16T17:34:32.994Z,44.13
2018-08-16T17:35:32.984Z,43.73
2018-08-16T17:36:32.968Z,44.02
2018-08-16T17:37:32.999Z,44.23
2018-08-16T17:38:33.028Z,44.62
2018-08-16T17:39:32.975Z,45.14
2018-08-16T17:40:32.980Z,45.04
2018-08-16T17:41:32.924Z,45.04
2018-08-16T17:42:32.962Z,44.84
2018-08-16T17:43:32.898Z,45.14
2018-08-16T17:44:32.879Z,45.63